Time;durP1;ratioP1;P1;durP2;ratioP2;P2;SDS_P1;SDS_P2;PMS_P1;PMS_P2;Temp;Humidity;BMP_temperature;BMP_pressure;BME280_temperature;BME280_humidity;BME280_pressure;Samples;Min_cycle;Max_cycle;Signal;HPM_P1;HPM_P2
2021/01/23 00:01:09;;;;;;;0.83;0.83;;;;;;;-0.93;87.70;93625.63;4974485;28;20187;-77
2021/01/23 00:03:34;;;;;;;0.90;0.90;;;;;;;-0.93;87.60;93620.53;4957037;28;20185;-77
2021/01/23 00:05:59;;;;;;;1.13;1.03;;;;;;;-0.95;87.70;93619.06;4956586;28;20222;-76
2021/01/23 00:08:25;;;;;;;1.27;1.13;;;;;;;-0.98;88.11;93627.72;4956968;28;20173;-77
2021/01/23 00:10:50;;;;;;;0.90;0.90;;;;;;;-0.94;88.24;93628.31;4956798;28;20253;-77
2021/01/23 00:13:15;;;;;;;0.90;0.90;;;;;;;-0.89;88.21;93633.81;4956839;28;20186;-77
2021/01/23 00:15:41;;;;;;;0.87;0.87;;;;;;;-1.01;88.11;93639.94;4973875;28;20206;-77
2021/01/23 00:18:06;;;;;;;1.00;0.80;;;;;;;-0.88;88.12;93643.91;4956810;28;20205;-77
2021/01/23 00:20:31;;;;;;;1.00;0.90;;;;;;;-0.96;87.76;93641.19;4956928;28;20659;-77
2021/01/23 00:22:56;;;;;;;1.00;0.90;;;;;;;-0.86;88.15;93638.69;4956858;28;20179;-77
2021/01/23 00:25:22;;;;;;;0.80;0.80;;;;;;;-0.84;87.94;93646.19;4973721;28;20209;-77
2021/01/23 00:27:47;;;;;;;0.83;0.83;;;;;;;-0.90;87.92;93648.31;4972874;28;20227;-77
2021/01/23 00:30:13;;;;;;;1.10;0.70;;;;;;;-0.87;88.51;93662.56;4972571;28;20211;-77
2021/01/23 00:32:38;;;;;;;1.30;0.90;;;;;;;-0.92;88.15;93664.66;4956437;28;20272;-76
2021/01/23 00:35:04;;;;;;;1.47;1.00;;;;;;;-1.00;87.75;93660.19;4956204;28;20200;-77
2021/01/23 00:37:29;;;;;;;0.70;0.70;;;;;;;-0.91;88.28;93664.53;4956141;28;20216;-77
2021/01/23 00:39:54;;;;;;;0.90;0.70;;;;;;;-0.94;87.98;93664.78;4973779;28;20179;-77
2021/01/23 00:42:20;;;;;;;0.60;0.60;;;;;;;-0.93;88.31;93661.31;4972268;28;20547;-77
2021/01/23 00:44:45;;;;;;;0.77;0.77;;;;;;;-0.91;87.90;93672.16;4973175;28;20183;-77
2021/01/23 00:47:10;;;;;;;0.70;0.70;;;;;;;-0.92;88.38;93669.75;4956250;28;20191;-77
2021/01/23 00:49:35;;;;;;;0.57;0.57;;;;;;;-0.99;88.22;93671.97;4973550;28;20178;-77
2021/01/23 00:52:01;;;;;;;0.60;0.60;;;;;;;-0.93;87.85;93673.25;4973441;28;20191;-77
2021/01/23 00:54:26;;;;;;;0.50;0.50;;;;;;;-0.90;88.24;93672.97;4955923;28;20179;-77
2021/01/23 00:56:51;;;;;;;0.57;0.57;;;;;;;-0.91;87.91;93677.25;4956123;28;20650;-77
2021/01/23 00:59:17;;;;;;;0.60;0.60;;;;;;;-0.88;88.00;93684.69;4955929;28;20234;-77
2021/01/23 01:01:42;;;;;;;0.80;0.80;;;;;;;-0.95;88.02;93678.47;4955997;28;20176;-77
2021/01/23 01:04:07;;;;;;;1.17;1.07;;;;;;;-0.92;88.04;93687.59;4972009;28;20242;-77
2021/01/23 01:06:33;;;;;;;1.30;1.20;;;;;;;-0.87;87.93;93683.75;4955729;28;20208;-77
2021/01/23 01:08:58;;;;;;;1.47;1.37;;;;;;;-0.86;88.33;93692.19;4955880;28;20179;-77
2021/01/23 01:11:23;;;;;;;1.70;1.40;;;;;;;-0.87;88.17;93696.50;4955894;28;20184;-77
2021/01/23 01:13:48;;;;;;;3.97;2.10;;;;;;;-0.90;88.27;93690.81;4973094;28;20649;-77
2021/01/23 01:16:14;;;;;;;9.13;2.57;;;;;;;-0.93;88.04;93696.97;4955466;28;20687;-77
2021/01/23 01:18:39;;;;;;;2.30;2.00;;;;;;;-0.91;88.19;93701.94;4955774;28;20213;-77
2021/01/23 01:21:05;;;;;;;1.50;1.40;;;;;;;-0.92;88.46;93711.31;4973060;28;20228;-77
2021/01/23 01:23:30;;;;;;;1.40;1.30;;;;;;;-0.93;88.54;93714.81;4955822;28;20314;-77
2021/01/23 01:25:55;;;;;;;0.97;0.90;;;;;;;-0.91;88.59;93718.03;4955431;28;20617;-77
2021/01/23 01:28:20;;;;;;;0.90;0.90;;;;;;;-0.95;88.47;93716.69;4955553;28;20177;-76
2021/01/23 01:30:46;;;;;;;0.73;0.73;;;;;;;-0.94;88.71;93713.19;4972925;28;20207;-77
2021/01/23 01:33:11;;;;;;;0.60;0.60;;;;;;;-0.94;88.50;93715.75;4955770;28;20183;-77
2021/01/23 01:35:36;;;;;;;1.17;1.07;;;;;;;-0.91;88.43;93723.13;4955388;28;20208;-77
2021/01/23 01:38:02;;;;;;;1.00;0.90;;;;;;;-0.93;88.48;93724.19;4972931;28;20216;-77
2021/01/23 01:40:27;;;;;;;1.00;0.93;;;;;;;-0.87;88.04;93716.88;4955662;28;20551;-77
2021/01/23 01:42:53;;;;;;;0.87;0.83;;;;;;;-0.93;88.41;93726.75;4955481;28;20311;-76
2021/01/23 01:45:18;;;;;;;1.23;1.13;;;;;;;-0.86;88.07;93718.50;4971405;28;20327;-77
2021/01/23 01:47:43;;;;;;;1.50;1.20;;;;;;;-0.77;87.94;93724.59;4955603;28;20195;-77
2021/01/23 01:50:10;;;;;;;1.23;1.13;;;;;;;-0.80;87.77;93719.72;4957586;28;20270;-77
2021/01/23 01:52:35;;;;;;;1.60;1.50;;;;;;;-0.75;87.97;93719.34;4959323;28;20204;-77
2021/01/23 01:55:01;;;;;;;1.77;1.67;;;;;;;-0.70;88.04;93727.44;4959178;28;20203;-77
2021/01/23 01:57:26;;;;;;;1.80;1.70;;;;;;;-0.70;87.78;93732.56;4959250;28;20779;-77
2021/01/23 01:59:51;;;;;;;1.60;1.50;;;;;;;-0.74;87.93;93747.25;4959260;28;20319;-77
2021/01/23 02:02:26;;;;;;;3.47;1.90;;;;;;;-0.75;87.62;93742.28;4976408;28;20200;-77
2021/01/23 02:05:08;;;;;;;1.50;1.40;;;;;;;-0.76;87.89;93753.44;4958786;28;20215;-77
2021/01/23 02:07:56;;;;;;;2.20;2.00;;;;;;;-0.65;87.53;93748.25;4959148;28;20259;-77
2021/01/23 02:10:31;;;;;;;2.77;2.30;;;;;;;-0.64;87.47;93752.44;4959282;28;20593;-77
2021/01/23 02:13:31;;;;;;;2.77;2.47;;;;;;;-0.69;87.50;93763.00;4959229;28;20579;-77
2021/01/23 02:16:06;;;;;;;4.73;2.87;;;;;;;-0.73;87.81;93764.16;4958752;28;20211;-77
2021/01/23 02:18:37;;;;;;;3.00;2.70;;;;;;;-0.70;88.05;93768.25;4958875;28;20212;-77
2021/01/23 02:21:28;;;;;;;4.03;2.97;;;;;;;-0.76;87.94;93774.63;4942882;28;20180;-77
2021/01/23 02:23:55;;;;;;;3.43;2.97;;;;;;;-0.66;87.74;93779.78;4976290;28;20297;-77
2021/01/23 02:26:34;;;;;;;3.33;3.03;;;;;;;-0.68;87.71;93795.22;4942731;28;20200;-77
2021/01/23 02:29:02;;;;;;;3.63;3.33;;;;;;;-0.64;87.66;93794.03;4942687;28;20212;-76
2021/01/23 02:31:51;;;;;;;5.43;3.23;;;;;;;-0.63;87.74;93805.03;4976107;28;20254;-76
2021/01/23 02:34:19;;;;;;;3.03;2.70;;;;;;;-0.64;87.83;93800.88;4958653;28;20188;-76
2021/01/23 02:36:45;;;;;;;3.47;3.10;;;;;;;-0.65;87.52;93815.34;4958596;28;20199;-76
2021/01/23 02:39:11;;;;;;;4.00;3.27;;;;;;;-0.68;87.46;93812.25;4942334;28;20211;-76
2021/01/23 02:41:36;;;;;;;3.77;3.23;;;;;;;-0.67;87.35;93806.22;4958594;28;20184;-76
2021/01/23 02:44:02;;;;;;;3.93;3.10;;;;;;;-0.60;87.75;93815.81;4958522;28;20546;-76
2021/01/23 02:46:27;;;;;;;3.70;2.80;;;;;;;-0.66;87.23;93818.84;4958192;28;20632;-76
2021/01/23 02:48:53;;;;;;;3.13;2.87;;;;;;;-0.64;87.05;93823.81;4958456;28;20258;-76
2021/01/23 02:51:23;;;;;;;2.43;2.23;;;;;;;-0.71;87.39;93823.47;4958527;28;20719;-76
2021/01/23 02:53:50;;;;;;;4.33;2.93;;;;;;;-0.64;87.16;93824.63;4942266;28;20199;-76
2021/01/23 02:56:18;;;;;;;3.13;2.60;;;;;;;-0.66;86.81;93823.94;4958023;28;20219;-76
2021/01/23 02:58:44;;;;;;;3.33;2.77;;;;;;;-0.70;86.92;93826.88;4958215;28;20234;-76
2021/01/23 03:01:10;;;;;;;3.00;2.67;;;;;;;-0.73;87.36;93832.19;4957100;28;20212;-76
2021/01/23 03:03:36;;;;;;;3.73;2.67;;;;;;;-0.71;87.25;93835.41;4958266;28;20658;-76
2021/01/23 03:06:05;;;;;;;4.27;2.63;;;;;;;-0.71;87.51;93832.88;4957725;28;20212;-76
2021/01/23 03:08:31;;;;;;;3.73;2.83;;;;;;;-0.67;87.47;93841.91;4958112;28;20176;-76
2021/01/23 03:10:56;;;;;;;5.87;2.60;;;;;;;-0.73;86.94;93842.38;4958054;28;20706;-76
2021/01/23 03:13:21;;;;;;;3.17;2.63;;;;;;;-0.68;86.93;93855.59;4957962;28;20180;-75
2021/01/23 03:15:47;;;;;;;2.97;2.60;;;;;;;-0.68;86.78;93846.19;4974993;28;20258;-76
2021/01/23 03:18:12;;;;;;;4.67;2.50;;;;;;;-0.66;86.50;93846.06;4957965;28;20239;-77
2021/01/23 03:20:37;;;;;;;2.90;2.33;;;;;;;-0.66;87.24;93846.06;4957954;28;20298;-76
2021/01/23 03:23:03;;;;;;;4.00;2.50;;;;;;;-0.65;86.86;93852.78;4975075;28;20192;-76
2021/01/23 03:25:29;;;;;;;2.73;2.13;;;;;;;-0.67;86.60;93860.56;4957594;28;20674;-76
2021/01/23 03:27:55;;;;;;;3.67;2.17;;;;;;;-0.67;86.72;93864.84;4941778;28;20212;-76
2021/01/23 03:30:21;;;;;;;2.67;2.43;;;;;;;-0.67;86.90;93865.66;4957645;28;20186;-76
2021/01/23 03:32:50;;;;;;;4.27;2.27;;;;;;;-0.63;86.69;93873.84;4975018;28;20184;-76
2021/01/23 03:35:19;;;;;;;3.43;2.23;;;;;;;-0.68;86.65;93884.44;4957815;28;20617;-76
2021/01/23 03:37:44;;;;;;;3.03;2.30;;;;;;;-0.66;86.02;93877.47;4974743;28;20205;-75
2021/01/23 03:40:10;;;;;;;3.60;2.53;;;;;;;-0.64;86.44;93878.16;4957480;28;20666;-75
2021/01/23 03:42:36;;;;;;;2.80;2.27;;;;;;;-0.63;86.13;93876.41;4974729;28;20844;-75
2021/01/23 03:45:03;;;;;;;2.80;2.17;;;;;;;-0.67;86.18;93875.03;4974428;28;20234;-76
2021/01/23 03:47:28;;;;;;;3.87;2.90;;;;;;;-0.73;86.13;93875.53;4974494;28;20207;-75
2021/01/23 03:49:53;;;;;;;3.03;2.50;;;;;;;-0.72;86.42;93874.59;4957199;28;20226;-75
2021/01/23 03:52:18;;;;;;;4.07;2.80;;;;;;;-0.68;86.32;93874.25;4957311;28;20204;-76
2021/01/23 03:54:44;;;;;;;3.27;2.57;;;;;;;-0.70;86.22;93873.56;4957041;28;20181;-75
2021/01/23 03:57:10;;;;;;;4.57;2.73;;;;;;;-0.70;86.12;93876.09;4956938;28;20177;-75
2021/01/23 03:59:35;;;;;;;3.67;2.40;;;;;;;-0.71;85.69;93873.66;4957092;28;20245;-75
2021/01/23 04:02:00;;;;;;;3.47;2.57;;;;;;;-0.74;85.60;93869.63;4941162;28;20190;-75
2021/01/23 04:04:26;;;;;;;4.93;2.57;;;;;;;-0.77;85.24;93874.97;4956791;28;20195;-75
2021/01/23 04:06:51;;;;;;;3.37;2.40;;;;;;;-0.69;85.14;93882.00;4956821;28;20211;-75
2021/01/23 04:09:16;;;;;;;4.57;2.37;;;;;;;-0.72;84.19;93885.59;4974264;28;20263;-75
2021/01/23 04:11:42;;;;;;;2.70;2.10;;;;;;;-0.72;84.22;93885.59;4956850;28;20184;-75
2021/01/23 04:14:07;;;;;;;2.87;2.10;;;;;;;-0.72;83.73;93888.13;4956589;28;20270;-75
2021/01/23 04:16:32;;;;;;;2.87;2.10;;;;;;;-0.74;83.40;93882.34;4940597;28;20200;-76
2021/01/23 04:18:58;;;;;;;2.23;2.03;;;;;;;-0.76;83.42;93896.16;4956762;28;20208;-75
2021/01/23 04:21:23;;;;;;;2.03;1.70;;;;;;;-0.75;83.63;93892.69;4974023;28;20180;-75
2021/01/23 04:23:48;;;;;;;3.67;2.30;;;;;;;-0.78;83.63;93898.03;4956679;28;20816;-75
2021/01/23 04:26:14;;;;;;;3.47;2.30;;;;;;;-0.79;84.17;93904.88;4956232;28;20295;-75
2021/01/23 04:28:39;;;;;;;3.17;2.30;;;;;;;-0.80;84.51;93898.13;4956642;28;20231;-75
2021/01/23 04:31:04;;;;;;;6.17;3.03;;;;;;;-0.87;84.48;93897.81;4956544;28;20172;-75
2021/01/23 04:33:30;;;;;;;3.53;2.90;;;;;;;-0.83;84.11;93895.00;4956529;28;20270;-75
2021/01/23 04:35:55;;;;;;;3.80;2.77;;;;;;;-0.78;84.16;93898.84;4955934;28;20204;-75
2021/01/23 04:38:20;;;;;;;5.30;3.60;;;;;;;-0.80;84.13;93894.75;4973639;28;20347;-76
2021/01/23 04:40:46;;;;;;;4.67;3.10;;;;;;;-0.83;84.35;93900.13;4940366;28;20191;-75
2021/01/23 04:43:11;;;;;;;3.77;3.33;;;;;;;-0.83;84.69;93900.13;4956418;28;20258;-75
2021/01/23 04:45:36;;;;;;;3.80;3.40;;;;;;;-0.89;84.67;93898.84;4956055;28;20200;-75
2021/01/23 04:48:02;;;;;;;3.80;3.00;;;;;;;-0.88;84.68;93901.28;4973545;28;20180;-75
2021/01/23 04:50:27;;;;;;;5.30;3.43;;;;;;;-0.87;84.57;93902.91;4956024;28;20694;-75
2021/01/23 04:52:53;;;;;;;6.20;3.30;;;;;;;-0.81;84.78;93895.69;4973480;28;20182;-75
2021/01/23 04:55:18;;;;;;;7.90;4.30;;;;;;;-0.87;84.75;93890.16;4955824;28;20207;-76
2021/01/23 04:57:44;;;;;;;7.37;4.80;;;;;;;-0.85;84.87;93892.59;4956072;28;20256;-76
2021/01/23 05:00:10;;;;;;;8.00;5.00;;;;;;;-0.82;85.01;93894.88;4956187;28;20560;-76
2021/01/23 05:02:36;;;;;;;5.57;4.20;;;;;;;-0.85;85.15;93897.69;4955542;28;20286;-77
2021/01/23 05:05:03;;;;;;;5.90;3.37;;;;;;;-0.89;84.92;93912.38;4955415;28;20272;-76
2021/01/23 05:07:40;;;;;;;7.60;3.53;;;;;;;-0.91;85.47;93901.50;4940148;28;20230;-76
2021/01/23 05:10:11;;;;;;;7.27;5.03;;;;;;;-0.87;85.26;93902.91;4955996;28;20682;-76
2021/01/23 05:12:39;;;;;;;8.63;5.03;;;;;;;-0.88;85.46;93900.47;4973220;28;20211;-76
2021/01/23 05:15:09;;;;;;;7.63;4.43;;;;;;;-0.87;85.33;93899.56;4939477;28;20683;-76
2021/01/23 05:17:47;;;;;;;6.23;4.80;;;;;;;-0.87;85.45;93892.72;4955581;28;20725;-76
2021/01/23 05:20:47;;;;;;;6.43;4.53;;;;;;;-0.86;85.31;93898.63;4956014;28;20546;-76
2021/01/23 05:23:24;;;;;;;3.93;3.30;;;;;;;-0.84;85.29;93889.09;4955711;28;20644;-76
2021/01/23 05:25:50;;;;;;;4.57;3.80;;;;;;;-0.89;85.54;93892.00;4954744;28;20197;-76
2021/01/23 05:28:31;;;;;;;5.37;3.73;;;;;;;-0.81;85.38;93888.06;4972992;28;20176;-75
2021/01/23 05:30:58;;;;;;;5.23;3.40;;;;;;;-0.84;85.29;93886.56;4972967;28;20183;-75
2021/01/23 05:33:34;;;;;;;4.40;3.40;;;;;;;-0.86;85.48;93894.34;4955723;28;20179;-74
2021/01/23 05:36:07;;;;;;;7.87;3.37;;;;;;;-0.92;85.55;93891.44;4972614;28;20190;-74
2021/01/23 05:38:37;;;;;;;6.37;3.67;;;;;;;-0.93;85.54;93895.72;4955635;28;20198;-75
2021/01/23 05:41:08;;;;;;;5.90;3.50;;;;;;;-0.92;85.51;93876.97;4955549;28;20255;-76
2021/01/23 05:43:45;;;;;;;9.97;3.37;;;;;;;-0.89;nan;93881.81;4972822;28;20769;-76
2021/01/23 05:46:14;;;;;;;4.03;3.10;;;;;;;-0.82;85.08;93886.44;4955403;28;20200;-74
2021/01/23 05:48:42;;;;;;;4.23;3.23;;;;;;;-0.76;84.66;93883.41;4955371;28;20176;-75
2021/01/23 05:51:07;;;;;;;6.70;3.17;;;;;;;-0.77;84.74;93881.81;4939284;28;20207;-75
2021/01/23 05:53:33;;;;;;;5.10;3.10;;;;;;;-0.79;84.79;93893.88;4939442;28;20190;-74
2021/01/23 05:56:01;;;;;;;8.03;3.37;;;;;;;-0.79;84.22;93881.13;4939122;28;20571;-74
2021/01/23 05:58:32;;;;;;;4.30;3.00;;;;;;;-0.79;83.99;93876.81;4955694;28;20210;-76
2021/01/23 06:00:59;;;;;;;5.03;3.23;;;;;;;-0.86;84.46;93875.69;4939373;28;20256;-74
2021/01/23 06:03:32;;;;;;;3.03;2.70;;;;;;;-0.86;84.46;93876.50;4939306;28;20183;-76
2021/01/23 06:05:57;;;;;;;8.03;3.73;;;;;;;-0.84;84.38;93876.38;4954789;28;20212;-76
2021/01/23 06:08:42;;;;;;;5.30;3.00;;;;;;;-0.80;84.36;93879.47;4955539;28;20181;-76
2021/01/23 06:11:19;;;;;;;3.30;3.00;;;;;;;-0.90;84.57;93884.47;4955276;28;20607;-76
2021/01/23 06:13:49;;;;;;;5.57;2.70;;;;;;;-0.94;84.68;93885.66;4972420;28;20266;-76
2021/01/23 06:16:32;;;;;;;4.07;2.83;;;;;;;-0.90;84.55;93890.38;4954912;28;20234;-76
2021/01/23 06:19:26;;;;;;;4.33;2.77;;;;;;;-0.95;84.31;93884.84;4955150;28;20219;-76
2021/01/23 06:21:52;;;;;;;3.37;2.13;;;;;;;-0.84;83.94;93878.91;4955139;28;20207;-76
2021/01/23 06:24:19;;;;;;;6.83;2.80;;;;;;;-0.90;83.87;93885.28;4954872;28;20273;-75
2021/01/23 06:26:53;;;;;;;6.33;2.67;;;;;;;-0.86;83.64;93889.22;4955004;28;20215;-76
2021/01/23 06:29:31;;;;;;;3.97;2.90;;;;;;;-0.92;84.01;93882.06;4972423;28;20203;-76
2021/01/23 06:31:56;;;;;;;2.70;2.20;;;;;;;-0.95;84.28;93891.69;4954972;28;20191;-76
2021/01/23 06:34:24;;;;;;;3.07;2.50;;;;;;;-0.94;83.77;93891.56;4954855;28;20183;-76
2021/01/23 06:36:49;;;;;;;4.17;2.63;;;;;;;-0.97;84.00;93893.53;4957688;28;20207;-74
2021/01/23 06:39:14;;;;;;;2.90;2.60;;;;;;;-1.02;84.00;93886.25;4958445;28;20578;-74
2021/01/23 06:41:40;;;;;;;2.97;2.40;;;;;;;-1.02;83.97;93888.81;4958587;28;20608;-76
2021/01/23 06:44:19;;;;;;;2.50;2.30;;;;;;;-1.06;84.26;93897.63;4958470;28;20187;-75
2021/01/23 06:46:48;;;;;;;3.83;2.13;;;;;;;-1.01;83.89;93897.25;4942421;28;20210;-74
2021/01/23 06:49:14;;;;;;;3.30;3.00;;;;;;;-1.07;83.76;93895.97;4958280;28;20187;-75
2021/01/23 06:51:42;;;;;;;2.80;1.90;;;;;;;-1.01;83.56;93892.97;4975787;28;20185;-75
2021/01/23 06:54:18;;;;;;;5.50;2.70;;;;;;;-1.04;84.14;93898.31;4942275;28;20189;-74
2021/01/23 06:56:47;;;;;;;3.10;2.60;;;;;;;-1.06;84.17;93902.72;4958149;28;20215;-75
2021/01/23 06:59:34;;;;;;;2.67;2.40;;;;;;;-1.01;84.49;93905.69;4941995;28;20220;-75
2021/01/23 07:02:05;;;;;;;2.60;2.23;;;;;;;-0.96;83.73;93900.25;4942679;28;20222;-75
2021/01/23 07:04:33;;;;;;;2.70;2.20;;;;;;;-0.95;83.71;93892.50;4962634;28;20622;-76
2021/01/23 07:06:59;;;;;;;4.03;2.50;;;;;;;-1.02;83.67;93905.81;4961243;28;20234;-76
2021/01/23 07:09:50;;;;;;;2.50;2.10;;;;;;;-0.98;83.92;93908.00;4961598;28;20584;-75
2021/01/23 07:12:37;;;;;;;3.57;2.60;;;;;;;-1.00;83.95;93912.41;4994744;28;20262;-74
2021/01/23 07:15:09;;;;;;;2.30;2.10;;;;;;;-1.07;83.96;93895.97;4994480;28;20725;-76
2021/01/23 07:17:44;;;;;;;3.53;2.37;;;;;;;-1.02;83.80;93900.72;4994574;28;20251;-74
2021/01/23 07:20:14;;;;;;;3.10;2.00;;;;;;;-0.97;83.60;93901.16;4976516;28;20198;-74
2021/01/23 07:22:42;;;;;;;3.47;2.37;;;;;;;-0.97;83.34;93898.63;4979459;28;20186;-74
2021/01/23 07:25:10;;;;;;;2.83;2.30;;;;;;;-0.95;83.60;93901.88;4947917;28;20212;-74
2021/01/23 07:27:36;;;;;;;3.87;2.30;;;;;;;-0.94;83.47;93908.59;4975121;28;20276;-76
2021/01/23 07:30:12;;;;;;;4.90;2.47;;;;;;;-0.89;83.44;93909.84;4957879;28;20262;-76
2021/01/23 07:32:38;;;;;;;2.87;1.93;;;;;;;-0.94;83.41;93899.22;4957802;28;20611;-75
2021/01/23 07:35:04;;;;;;;3.60;2.07;;;;;;;-0.87;83.34;93905.47;4940990;28;20207;-75
2021/01/23 07:37:46;;;;;;;3.93;2.10;;;;;;;-0.80;82.96;93898.13;4957520;28;20673;-76
2021/01/23 07:40:15;;;;;;;4.33;2.20;;;;;;;-0.86;82.95;93893.53;4957548;28;20191;-76
2021/01/23 07:42:41;;;;;;;3.17;2.13;;;;;;;-0.88;82.96;93903.84;4957614;28;20553;-75
2021/01/23 07:45:09;;;;;;;3.13;2.03;;;;;;;-0.83;82.89;93900.91;4966415;28;20202;-76
2021/01/23 07:47:35;;;;;;;2.07;1.77;;;;;;;-0.81;82.83;93903.34;4975799;28;20188;-75
2021/01/23 07:50:07;;;;;;;3.23;2.00;;;;;;;-0.77;82.45;93892.81;4992504;28;20175;-76
2021/01/23 07:52:33;;;;;;;4.50;2.50;;;;;;;-0.83;82.65;93887.38;4991808;28;20186;-75
2021/01/23 07:54:58;;;;;;;5.50;2.30;;;;;;;-0.79;82.58;93887.03;4985140;28;20205;-76
2021/01/23 07:57:24;;;;;;;4.10;2.10;;;;;;;-0.76;82.53;93885.97;4975901;28;20648;-76
2021/01/23 07:59:50;;;;;;;3.13;2.23;;;;;;;-0.84;82.75;93886.56;4960332;28;20269;-76
2021/01/23 08:02:16;;;;;;;3.77;2.30;;;;;;;-0.77;82.78;93881.81;4975227;28;20189;-76
2021/01/23 08:04:46;;;;;;;2.80;2.10;;;;;;;-0.71;82.56;93884.66;4958751;28;20184;-76
2021/01/23 08:07:26;;;;;;;3.20;2.23;;;;;;;-0.60;82.30;93871.09;4976138;28;20754;-76
2021/01/23 08:10:16;;;;;;;3.53;2.20;;;;;;;-0.63;82.23;93869.56;4960180;28;20192;-76
2021/01/23 08:12:54;;;;;;;2.43;2.23;;;;;;;-0.52;81.83;93865.38;4976091;28;20218;-76
2021/01/23 08:15:39;;;;;;;3.73;2.63;;;;;;;-0.53;82.00;93867.13;4975797;28;20198;-75
2021/01/23 08:18:15;;;;;;;2.83;2.33;;;;;;;-0.42;81.82;93854.31;4976116;28;20633;-76
2021/01/23 08:20:41;;;;;;;2.73;2.40;;;;;;;-0.33;81.65;93852.78;4959106;28;20609;-75
2021/01/23 08:23:13;;;;;;;3.13;2.00;;;;;;;-0.23;81.41;93851.09;4993240;28;20191;-76
2021/01/23 08:25:44;;;;;;;2.27;2.03;;;;;;;-0.24;81.89;93852.03;4964809;28;20213;-75
2021/01/23 08:28:10;;;;;;;6.30;2.70;;;;;;;-0.15;81.19;93848.72;4990439;28;20263;-76
2021/01/23 08:30:36;;;;;;;3.60;2.30;;;;;;;-0.15;81.30;93843.63;4993666;28;20250;-76
2021/01/23 08:33:03;;;;;;;2.37;1.93;;;;;;;-0.05;80.98;93843.69;4975846;28;20175;-76
2021/01/23 08:35:30;;;;;;;2.93;2.53;;;;;;;0.05;80.56;93839.44;4975191;28;20253;-76
2021/01/23 08:37:56;;;;;;;2.73;2.53;;;;;;;0.13;80.88;93841.38;4975667;28;20207;-76
2021/01/23 08:40:22;;;;;;;5.07;2.00;;;;;;;0.02;80.42;93839.72;4992932;28;20198;-76
2021/01/23 08:42:48;;;;;;;2.30;2.10;;;;;;;0.05;80.54;93847.09;4993093;28;20521;-76
2021/01/23 08:45:14;;;;;;;3.53;3.23;;;;;;;-0.03;80.77;93845.16;4975160;28;20203;-76
2021/01/23 08:47:40;;;;;;;3.13;2.83;;;;;;;0.14;80.29;93838.69;4972535;28;20186;-76
2021/01/23 08:50:06;;;;;;;4.40;2.60;;;;;;;0.31;80.27;93844.16;4966688;28;20188;-76
2021/01/23 08:52:31;;;;;;;4.20;3.07;;;;;;;0.37;80.00;93841.09;4972447;28;20184;-76
2021/01/23 08:54:56;;;;;;;3.77;3.00;;;;;;;0.56;79.36;93838.63;4992478;28;20211;-76
2021/01/23 08:57:22;;;;;;;5.70;4.40;;;;;;;0.62;79.53;93840.66;4975519;28;20187;-76
2021/01/23 08:59:47;;;;;;;6.03;4.33;;;;;;;0.71;78.53;93834.78;4975312;28;20219;-76
2021/01/23 09:02:14;;;;;;;4.03;3.53;;;;;;;0.89;79.25;93832.41;4984060;28;20191;-75
2021/01/23 09:04:42;;;;;;;7.13;4.37;;;;;;;0.78;78.47;93835.84;4964093;28;20179;-75
2021/01/23 09:07:11;;;;;;;8.33;5.33;;;;;;;0.98;78.00;93831.59;4974389;28;20278;-75
2021/01/23 09:09:36;;;;;;;7.90;5.60;;;;;;;0.99;78.18;93830.66;4984202;28;20172;-75
2021/01/23 09:12:03;;;;;;;14.17;8.67;;;;;;;1.05;77.69;93826.75;4972343;28;20676;-74
2021/01/23 09:14:28;;;;;;;12.27;7.20;;;;;;;1.08;77.21;93829.06;4974772;28;20179;-75
2021/01/23 09:16:53;;;;;;;7.43;4.43;;;;;;;1.05;77.16;93826.75;4959003;28;20207;-74
2021/01/23 09:19:22;;;;;;;11.27;5.80;;;;;;;0.97;77.78;93827.44;4974816;28;20207;-75
2021/01/23 09:21:47;;;;;;;6.63;4.33;;;;;;;1.02;77.79;93825.28;4958773;28;20187;-75
2021/01/23 09:24:13;;;;;;;2.90;2.00;;;;;;;1.23;78.00;93824.34;4992476;28;20191;-75
2021/01/23 09:26:39;;;;;;;3.43;2.40;;;;;;;1.37;77.22;93821.41;4973064;28;20735;-75
2021/01/23 09:29:04;;;;;;;2.87;2.50;;;;;;;1.36;76.87;93820.59;4975220;28;20172;-76
2021/01/23 09:31:30;;;;;;;2.63;2.23;;;;;;;1.51;75.58;93817.66;4992460;28;20184;-75
2021/01/23 09:33:55;;;;;;;2.90;1.97;;;;;;;1.61;76.55;93824.38;4974931;28;20187;-75
2021/01/23 09:36:21;;;;;;;2.40;2.20;;;;;;;1.75;76.21;93822.34;4992173;28;20207;-75
2021/01/23 09:38:46;;;;;;;2.80;2.47;;;;;;;1.84;75.34;93816.41;4974816;28;20207;-76
2021/01/23 09:41:12;;;;;;;3.93;3.03;;;;;;;1.91;75.29;93810.59;4975083;28;20679;-74
2021/01/23 09:43:37;;;;;;;3.97;2.90;;;;;;;1.93;73.74;93813.00;4974994;28;20236;-76
2021/01/23 09:46:03;;;;;;;4.33;3.37;;;;;;;1.96;74.45;93813.56;4974727;28;20277;-74
2021/01/23 09:48:28;;;;;;;4.10;2.57;;;;;;;2.19;74.39;93802.97;4974534;28;20183;-76
2021/01/23 09:50:53;;;;;;;3.03;2.83;;;;;;;1.96;73.99;93803.31;4992411;28;20179;-76
2021/01/23 09:53:18;;;;;;;3.40;2.63;;;;;;;1.94;74.80;93805.22;4975009;28;20216;-76
2021/01/23 09:55:44;;;;;;;3.00;2.70;;;;;;;1.78;75.28;93799.03;4958230;28;20207;-77
2021/01/23 09:58:09;;;;;;;3.83;2.90;;;;;;;1.93;75.37;93802.78;4974950;28;20338;-75
2021/01/23 10:00:34;;;;;;;4.10;2.47;;;;;;;1.80;75.73;93797.16;4974993;28;20227;-75
2021/01/23 10:03:00;;;;;;;4.93;3.20;;;;;;;2.15;75.05;93796.53;4974830;28;20810;-75
2021/01/23 10:05:25;;;;;;;4.90;4.40;;;;;;;2.14;74.84;93793.16;4992074;28;20660;-74
2021/01/23 10:07:51;;;;;;;5.37;2.93;;;;;;;2.36;74.45;93783.50;4974841;28;20203;-75
2021/01/23 10:10:16;;;;;;;5.00;3.37;;;;;;;2.31;73.67;93778.03;4960225;28;20187;-74
2021/01/23 10:12:41;;;;;;;4.57;3.37;;;;;;;2.34;74.44;93780.28;4979889;28;20187;-76
2021/01/23 10:15:07;;;;;;;4.10;3.70;;;;;;;2.25;74.34;93772.50;4978332;28;20208;-75
2021/01/23 10:17:32;;;;;;;6.40;3.53;;;;;;;2.40;73.86;93769.50;4964352;28;20180;-75
2021/01/23 10:19:57;;;;;;;3.80;3.40;;;;;;;2.28;75.00;93771.41;4978823;28;20181;-75
2021/01/23 10:22:23;;;;;;;4.63;3.67;;;;;;;2.30;74.66;93761.00;4986472;28;20560;-75
2021/01/23 10:24:48;;;;;;;5.27;3.30;;;;;;;2.41;74.16;93756.53;4958671;28;20177;-76
2021/01/23 10:27:13;;;;;;;3.87;3.00;;;;;;;2.42;73.74;93755.56;4943091;28;20216;-75
2021/01/23 10:29:39;;;;;;;3.50;3.10;;;;;;;2.47;73.84;93753.41;4976469;28;20180;-76
2021/01/23 10:32:04;;;;;;;4.77;3.30;;;;;;;2.13;76.08;93755.72;4958565;28;20675;-76
2021/01/23 10:34:30;;;;;;;3.43;3.10;;;;;;;2.39;74.60;93753.31;4958680;28;20183;-76
2021/01/23 10:36:55;;;;;;;3.57;3.03;;;;;;;2.23;74.32;93747.97;4959995;28;20202;-76
2021/01/23 10:39:21;;;;;;;3.17;2.80;;;;;;;2.09;74.68;93745.88;4994349;28;20215;-76
2021/01/23 10:41:46;;;;;;;4.80;3.27;;;;;;;1.92;75.93;93737.97;4983600;28;20189;-76
2021/01/23 10:44:12;;;;;;;2.93;2.63;;;;;;;2.06;75.95;93733.34;4958421;28;20203;-76
2021/01/23 10:46:37;;;;;;;4.30;3.10;;;;;;;2.02;75.84;93735.38;4942189;28;20296;-76
2021/01/23 10:49:03;;;;;;;3.50;3.20;;;;;;;2.27;75.74;93729.63;4942433;28;20548;-76
2021/01/23 10:51:28;;;;;;;3.13;2.47;;;;;;;2.40;74.79;93724.19;4958607;28;20195;-77
2021/01/23 10:53:54;;;;;;;3.20;2.63;;;;;;;2.10;75.11;93724.44;4982616;28;20543;-76
2021/01/23 10:56:19;;;;;;;2.70;2.30;;;;;;;2.14;75.58;93721.47;4977561;28;20204;-76
2021/01/23 10:58:44;;;;;;;3.83;2.27;;;;;;;2.13;75.66;93716.50;4977830;28;20204;-77
2021/01/23 11:01:10;;;;;;;3.33;2.73;;;;;;;2.28;74.54;93726.09;4977546;28;20187;-76
2021/01/23 11:03:35;;;;;;;3.20;2.40;;;;;;;1.95;75.95;93714.66;4977123;28;20207;-76
2021/01/23 11:06:01;;;;;;;2.33;2.07;;;;;;;2.16;76.00;93719.56;4977191;28;20250;-76
2021/01/23 11:08:26;;;;;;;4.47;2.57;;;;;;;2.32;75.92;93718.97;4977490;28;20188;-76
2021/01/23 11:10:52;;;;;;;3.90;2.60;;;;;;;2.24;75.42;93722.22;4994857;28;20267;-76
2021/01/23 11:13:17;;;;;;;5.37;3.43;;;;;;;2.42;75.53;93711.22;4961049;28;20184;-77
2021/01/23 11:15:43;;;;;;;4.20;3.47;;;;;;;2.45;75.86;93711.72;4977112;28;20207;-77
2021/01/23 11:18:08;;;;;;;4.73;2.90;;;;;;;2.31;75.96;93707.09;4977028;28;20210;-76
2021/01/23 11:20:33;;;;;;;2.97;2.67;;;;;;;2.16;76.78;93704.19;4994746;28;20278;-77
2021/01/23 11:22:59;;;;;;;3.17;2.70;;;;;;;2.47;75.50;93696.22;4993288;28;20189;-77
2021/01/23 11:25:27;;;;;;;2.60;2.20;;;;;;;2.45;75.00;93693.00;4993071;28;20200;-77
2021/01/23 11:27:52;;;;;;;4.60;3.53;;;;;;;2.46;75.51;93694.59;4977067;28;20184;-77
2021/01/23 11:30:18;;;;;;;4.33;3.00;;;;;;;2.38;76.11;93695.31;4977089;28;20181;-76
2021/01/23 11:32:44;;;;;;;4.03;3.43;;;;;;;2.31;76.65;93693.50;4993027;28;20339;-76
2021/01/23 11:35:09;;;;;;;3.20;2.90;;;;;;;2.30;76.45;93679.03;4993883;28;20242;-76
2021/01/23 11:37:35;;;;;;;4.13;3.07;;;;;;;2.18;76.46;93693.81;4976779;28;20334;-76
2021/01/23 11:40:00;;;;;;;4.70;2.87;;;;;;;2.05;77.05;93689.03;4977015;28;20215;-76